Time;durP1;ratioP1;P1;durP2;ratioP2;P2;SDS_P1;SDS_P2;PMS_P1;PMS_P2;Temp;Humidity;BMP_temperature;BMP_pressure;BME280_temperature;BME280_humidity;BME280_pressure;Samples;Min_cycle;Max_cycle;Signal;HPM_P1;HPM_P2
2022/06/01 00:00:25;;;;;;;9.63;8.63;;;;;;;;;;5064724;28;20044;-26
2022/06/01 00:02:52;;;;;;;14.68;11.43;;;;;;;;;;5057993;28;20117;-26
2022/06/01 00:05:19;;;;;;;16.65;12.63;;;;;;;;;;5055788;28;20068;-26
2022/06/01 00:07:46;;;;;;;18.65;14.05;;;;;;;;;;5054825;28;20169;-26
2022/06/01 00:10:12;;;;;;;20.17;16.10;;;;;;;;;;5038375;28;20056;-26
2022/06/01 00:12:38;;;;;;;17.30;14.05;;;;;;;;;;5055684;28;20049;-26
2022/06/01 00:15:05;;;;;;;15.93;14.00;;;;;;;;;;5055667;28;20048;-26
2022/06/01 00:17:31;;;;;;;17.45;14.57;;;;;;;;;;5058695;28;20045;-26
2022/06/01 00:19:58;;;;;;;21.88;15.75;;;;;;;;;;5058439;28;20124;-26
2022/06/01 00:22:24;;;;;;;17.50;15.02;;;;;;;;;;5053699;28;20136;-25
2022/06/01 00:24:50;;;;;;;17.63;14.88;;;;;;;;;;5055015;28;20052;-25
2022/06/01 00:27:17;;;;;;;18.08;13.88;;;;;;;;;;5054926;28;20128;-26
2022/06/01 00:29:43;;;;;;;18.48;15.60;;;;;;;;;;5055679;28;20041;-26
2022/06/01 00:32:11;;;;;;;17.13;13.93;;;;;;;;;;5054643;28;20041;-26
2022/06/01 00:34:37;;;;;;;21.48;16.75;;;;;;;;;;5056201;28;20048;-26
2022/06/01 00:37:04;;;;;;;21.40;16.45;;;;;;;;;;5055752;28;20052;-26
2022/06/01 00:39:30;;;;;;;17.23;14.60;;;;;;;;;;5054178;28;20120;-26
2022/06/01 00:42:08;;;;;;;23.02;17.67;;;;;;;;;;5071311;28;20177;-26
2022/06/01 00:44:34;;;;;;;20.30;16.02;;;;;;;;;;5061866;28;20405;-26
2022/06/01 00:47:00;;;;;;;20.10;16.75;;;;;;;;;;5063624;28;20538;-26
2022/06/01 00:49:27;;;;;;;22.42;17.05;;;;;;;;;;5054928;28;20048;-26
2022/06/01 00:51:53;;;;;;;22.20;16.77;;;;;;;;;;5055760;28;20052;-26
2022/06/01 00:54:19;;;;;;;22.80;17.73;;;;;;;;;;5054041;28;20399;-25
2022/06/01 00:56:47;;;;;;;27.83;16.95;;;;;;;;;;5054502;28;20478;-26
2022/06/01 00:59:15;;;;;;;19.77;17.60;;;;;;;;;;5054509;28;20391;-26
2022/06/01 01:01:41;;;;;;;21.40;17.30;;;;;;;;;;5055139;28;20492;-26
2022/06/01 01:04:08;;;;;;;22.75;18.75;;;;;;;;;;5053516;28;20044;-26
2022/06/01 01:06:36;;;;;;;22.48;19.10;;;;;;;;;;5053017;28;20052;-27
2022/06/01 01:09:04;;;;;;;22.00;18.63;;;;;;;;;;5054301;28;20116;-26
2022/06/01 01:11:53;;;;;;;21.73;18.42;;;;;;;;;;5053891;28;21178;-26
2022/06/01 01:14:22;;;;;;;22.95;17.92;;;;;;;;;;5058402;28;20090;-26
2022/06/01 01:16:48;;;;;;;20.13;18.13;;;;;;;;;;5054008;28;20045;-26
2022/06/01 01:19:19;;;;;;;21.65;18.00;;;;;;;;;;5054421;28;20095;-27
2022/06/01 01:21:51;;;;;;;18.63;16.60;;;;;;;;;;5052698;28;20076;-28
2022/06/01 01:24:23;;;;;;;24.17;18.70;;;;;;;;;;5055139;28;20151;-26
2022/06/01 01:26:51;;;;;;;20.92;17.42;;;;;;;;;;5053797;28;20544;-26
2022/06/01 01:29:29;;;;;;;21.23;17.92;;;;;;;;;;5053934;28;20156;-26
2022/06/01 01:31:55;;;;;;;23.90;19.38;;;;;;;;;;5054129;28;20119;-26
2022/06/01 01:34:21;;;;;;;25.73;18.30;;;;;;;;;;5053343;28;20133;-26
2022/06/01 01:36:48;;;;;;;19.73;17.60;;;;;;;;;;5052710;28;20049;-27
2022/06/01 01:39:15;;;;;;;18.23;15.32;;;;;;;;;;5054067;28;20134;-26
2022/06/01 01:41:42;;;;;;;18.00;16.13;;;;;;;;;;5053066;28;20127;-26
2022/06/01 01:44:15;;;;;;;25.45;19.05;;;;;;;;;;5063163;28;20053;-26
2022/06/01 01:46:45;;;;;;;22.95;17.10;;;;;;;;;;5054001;28;20045;-26
2022/06/01 01:49:11;;;;;;;23.35;18.65;;;;;;;;;;5054466;28;20055;-26
2022/06/01 01:51:37;;;;;;;21.08;18.50;;;;;;;;;;5056195;28;20512;-26
2022/06/01 01:54:09;;;;;;;18.92;16.90;;;;;;;;;;5054336;28;20049;-26
2022/06/01 01:57:01;;;;;;;25.83;22.98;;;;;;;;;;5051523;28;20056;-26
2022/06/01 01:59:28;;;;;;;23.60;21.10;;;;;;;;;;5051743;28;20090;-26
2022/06/01 02:01:54;;;;;;;25.88;22.40;;;;;;;;;;5053169;28;20128;-26
2022/06/01 02:07:13;;;;;;;25.70;21.35;;;;;;;;;;5053713;28;20056;-26
2022/06/01 02:12:42;;;;;;;24.75;22.13;;;;;;;;;;5068452;28;20044;-26
2022/06/01 02:15:21;;;;;;;31.48;24.00;;;;;;;;;;5055158;28;20048;-26
2022/06/01 02:17:49;;;;;;;26.38;21.58;;;;;;;;;;5052348;28;20399;-26
2022/06/01 02:20:18;;;;;;;27.35;22.92;;;;;;;;;;5053581;28;20041;-26
2022/06/01 02:22:44;;;;;;;25.90;22.63;;;;;;;;;;5053949;28;20391;-26
2022/06/01 02:25:11;;;;;;;30.55;23.45;;;;;;;;;;5053033;28;20085;-26
2022/06/01 02:27:39;;;;;;;27.15;23.40;;;;;;;;;;5052277;28;20041;-27
2022/06/01 02:30:10;;;;;;;30.65;24.95;;;;;;;;;;5053917;28;20154;-26
2022/06/01 02:32:37;;;;;;;29.67;23.52;;;;;;;;;;5052945;28;20132;-26
2022/06/01 02:35:04;;;;;;;29.00;24.23;;;;;;;;;;5052561;28;20510;-26
2022/06/01 02:37:31;;;;;;;30.95;24.13;;;;;;;;;;5053184;28;20456;-26
2022/06/01 02:39:58;;;;;;;31.27;24.00;;;;;;;;;;5051632;28;20041;-26
2022/06/01 02:42:28;;;;;;;27.75;22.00;;;;;;;;;;5053370;28;20103;-26
2022/06/01 02:45:00;;;;;;;26.75;21.83;;;;;;;;;;5056646;28;20448;-26
2022/06/01 02:47:33;;;;;;;28.63;24.10;;;;;;;;;;5058677;28;20080;-26
2022/06/01 02:49:59;;;;;;;32.45;25.27;;;;;;;;;;5053235;28;20083;-26
2022/06/01 02:52:26;;;;;;;29.20;24.30;;;;;;;;;;5052632;28;20073;-26
2022/06/01 02:54:52;;;;;;;28.65;24.45;;;;;;;;;;5053025;28;20061;-26
2022/06/01 02:57:18;;;;;;;38.05;27.52;;;;;;;;;;5052544;28;20041;-26
2022/06/01 02:59:45;;;;;;;33.17;27.70;;;;;;;;;;5052715;28;20041;-26
2022/06/01 03:02:11;;;;;;;43.90;27.65;;;;;;;;;;5052538;28;20045;-26
2022/06/01 03:04:38;;;;;;;33.60;27.25;;;;;;;;;;5051984;28;20045;-26
2022/06/01 03:07:04;;;;;;;25.27;22.45;;;;;;;;;;5054985;28;20113;-26
2022/06/01 03:09:30;;;;;;;27.92;24.92;;;;;;;;;;5052114;28;20055;-26
2022/06/01 03:11:56;;;;;;;31.45;27.30;;;;;;;;;;5052499;28;20123;-26
2022/06/01 03:14:22;;;;;;;34.00;27.33;;;;;;;;;;5056196;28;20405;-27
2022/06/01 03:16:49;;;;;;;30.25;25.13;;;;;;;;;;5052945;28;20128;-26
2022/06/01 03:19:15;;;;;;;31.70;26.65;;;;;;;;;;5053079;28;20607;-26
2022/06/01 03:21:41;;;;;;;34.45;25.33;;;;;;;;;;5052028;28;20045;-26
2022/06/01 03:24:08;;;;;;;32.63;25.60;;;;;;;;;;5052975;28;20049;-26
2022/06/01 03:26:35;;;;;;;32.30;25.70;;;;;;;;;;5053582;28;20110;-27
2022/06/01 03:29:01;;;;;;;46.80;34.45;;;;;;;;;;5053262;28;20055;-26
2022/06/01 03:31:27;;;;;;;40.75;33.70;;;;;;;;;;5052273;28;20052;-26
2022/06/01 03:33:53;;;;;;;39.83;30.77;;;;;;;;;;5035586;28;20045;-26
2022/06/01 03:36:19;;;;;;;33.58;29.98;;;;;;;;;;5055843;28;20048;-26
2022/06/01 03:38:45;;;;;;;32.97;27.45;;;;;;;;;;5054013;28;20056;-26
2022/06/01 03:41:12;;;;;;;35.30;27.88;;;;;;;;;;5056507;28;20044;-26
2022/06/01 03:46:22;;;;;;;37.17;28.73;;;;;;;;;;5056236;28;20504;-26
2022/06/01 03:48:48;;;;;;;37.15;28.95;;;;;;;;;;5056132;28;20041;-26
2022/06/01 03:51:15;;;;;;;41.85;30.05;;;;;;;;;;5055077;28;20048;-26
2022/06/01 03:53:41;;;;;;;39.30;29.92;;;;;;;;;;5055934;28;20084;-26
2022/06/01 03:56:08;;;;;;;35.67;29.58;;;;;;;;;;5055046;28;20053;-26
2022/06/01 03:58:34;;;;;;;42.78;31.45;;;;;;;;;;5055430;28;20083;-26
2022/06/01 04:01:00;;;;;;;36.50;30.45;;;;;;;;;;5056344;28;20110;-26
2022/06/01 04:03:27;;;;;;;40.63;32.33;;;;;;;;;;5055826;28;20087;-26
2022/06/01 04:05:54;;;;;;;42.65;32.90;;;;;;;;;;5055039;28;20491;-26
2022/06/01 04:08:20;;;;;;;37.70;31.08;;;;;;;;;;5055297;28;20506;-26
2022/06/01 04:10:47;;;;;;;36.55;30.48;;;;;;;;;;5055162;28;20067;-26
2022/06/01 04:13:14;;;;;;;35.97;30.75;;;;;;;;;;5067951;28;20646;-26
2022/06/01 04:15:40;;;;;;;33.00;29.13;;;;;;;;;;5056265;28;20372;-26
2022/06/01 04:18:06;;;;;;;40.15;32.38;;;;;;;;;;5055574;28;20044;-26
2022/06/01 04:20:32;;;;;;;31.33;27.80;;;;;;;;;;5056126;28;20048;-27
2022/06/01 04:23:00;;;;;;;33.40;28.27;;;;;;;;;;5057592;28;20521;-26
2022/06/01 04:25:26;;;;;;;33.22;28.13;;;;;;;;;;5054275;28;20463;-26
2022/06/01 04:27:52;;;;;;;32.35;28.85;;;;;;;;;;5054363;28;20088;-26
2022/06/01 04:30:20;;;;;;;31.25;26.55;;;;;;;;;;5055407;28;20041;-26
2022/06/01 04:32:47;;;;;;;32.88;27.35;;;;;;;;;;5055762;28;20084;-26
2022/06/01 04:35:13;;;;;;;30.40;27.10;;;;;;;;;;5055297;28;20044;-26
2022/06/01 04:37:39;;;;;;;35.70;29.83;;;;;;;;;;5054672;28;20403;-26
2022/06/01 04:40:06;;;;;;;34.35;28.17;;;;;;;;;;5053932;28;20052;-26
2022/06/01 04:42:33;;;;;;;30.75;26.95;;;;;;;;;;5060095;28;20134;-26
2022/06/01 04:44:59;;;;;;;30.00;26.67;;;;;;;;;;5054026;28;20045;-26
2022/06/01 04:47:26;;;;;;;28.13;24.10;;;;;;;;;;5055167;28;20504;-26
2022/06/01 04:49:52;;;;;;;29.90;24.58;;;;;;;;;;5037194;28;20090;-26
2022/06/01 04:52:18;;;;;;;30.70;25.65;;;;;;;;;;5065553;28;20087;-26
2022/06/01 04:54:44;;;;;;;27.55;24.70;;;;;;;;;;5042080;28;20505;-26
2022/06/01 04:57:10;;;;;;;22.45;20.15;;;;;;;;;;5053892;28;20600;-26
2022/06/01 04:59:36;;;;;;;23.50;20.95;;;;;;;;;;5054313;28;20052;-26
2022/06/01 05:02:02;;;;;;;25.20;21.23;;;;;;;;;;5054445;28;20040;-26
2022/06/01 05:04:29;;;;;;;24.17;21.50;;;;;;;;;;5054462;28;20040;-26
2022/06/01 05:06:56;;;;;;;26.02;22.33;;;;;;;;;;5054551;28;20049;-26
2022/06/01 05:09:22;;;;;;;25.50;22.60;;;;;;;;;;5054954;28;20052;-26
2022/06/01 05:11:48;;;;;;;28.55;25.55;;;;;;;;;;5056543;28;20045;-26
2022/06/01 05:14:15;;;;;;;25.45;22.85;;;;;;;;;;5061299;28;20053;-27
2022/06/01 05:16:41;;;;;;;23.95;21.08;;;;;;;;;;5054367;28;20041;-26
2022/06/01 05:19:07;;;;;;;23.83;21.33;;;;;;;;;;5053837;28;20061;-26
2022/06/01 05:21:33;;;;;;;24.63;20.42;;;;;;;;;;5053985;28;20076;-26
2022/06/01 05:23:59;;;;;;;23.80;21.33;;;;;;;;;;5054399;28;20044;-26
2022/06/01 05:26:25;;;;;;;28.42;23.63;;;;;;;;;;5054424;28;20071;-26
2022/06/01 05:28:52;;;;;;;24.25;21.65;;;;;;;;;;5053835;28;20048;-26
2022/06/01 05:31:18;;;;;;;25.70;22.73;;;;;;;;;;5052757;28;20499;-26
2022/06/01 05:33:45;;;;;;;24.95;22.23;;;;;;;;;;5052775;28;20474;-26
2022/06/01 05:36:15;;;;;;;23.50;21.00;;;;;;;;;;5057118;28;20102;-26
2022/06/01 05:38:42;;;;;;;22.98;20.48;;;;;;;;;;5060448;28;20130;-26
2022/06/01 05:41:08;;;;;;;20.83;18.52;;;;;;;;;;5054460;28;20056;-26
2022/06/01 05:43:35;;;;;;;17.95;15.63;;;;;;;;;;5053579;28;20053;-26
2022/06/01 05:46:01;;;;;;;18.55;16.60;;;;;;;;;;5071336;28;20055;-26
2022/06/01 05:48:27;;;;;;;19.02;15.77;;;;;;;;;;5068065;28;20047;-26
2022/06/01 05:50:53;;;;;;;16.25;13.02;;;;;;;;;;5053522;28;20044;-26
2022/06/01 05:53:19;;;;;;;17.95;12.73;;;;;;;;;;5053905;28;20045;-26
2022/06/01 05:55:45;;;;;;;16.83;13.88;;;;;;;;;;5053742;28;20091;-27
2022/06/01 05:58:13;;;;;;;14.27;12.77;;;;;;;;;;5053024;28;20087;-26
2022/06/01 06:00:39;;;;;;;18.15;14.55;;;;;;;;;;5054239;28;20041;-21
2022/06/01 06:03:05;;;;;;;17.65;13.18;;;;;;;;;;5052801;28;20128;-21
2022/06/01 06:08:16;;;;;;;20.38;16.35;;;;;;;;;;5053191;28;20052;-20
2022/06/01 06:10:42;;;;;;;12.98;11.57;;;;;;;;;;5053764;28;20532;-22
2022/06/01 06:13:08;;;;;;;13.73;11.02;;;;;;;;;;5063207;28;20548;-23
2022/06/01 06:15:34;;;;;;;13.27;10.82;;;;;;;;;;5063797;28;20049;-24
2022/06/01 06:18:00;;;;;;;21.45;19.15;;;;;;;;;;5073637;28;20052;-24
2022/06/01 06:20:26;;;;;;;26.83;22.27;;;;;;;;;;5065413;28;20033;-24
2022/06/01 06:22:52;;;;;;;28.33;20.83;;;;;;;;;;5053457;28;20048;-24
2022/06/01 06:25:18;;;;;;;39.17;26.52;;;;;;;;;;5052363;28;20084;-25
2022/06/01 06:27:44;;;;;;;29.85;23.42;;;;;;;;;;5058436;28;20048;-26
2022/06/01 06:30:11;;;;;;;31.42;24.00;;;;;;;;;;5062408;28;20490;-27
2022/06/01 06:32:37;;;;;;;25.13;20.20;;;;;;;;;;5063285;28;20036;-26
2022/06/01 06:35:03;;;;;;;25.65;21.45;;;;;;;;;;5056603;28;20406;-26
2022/06/01 06:37:29;;;;;;;27.17;19.40;;;;;;;;;;5071928;28;20542;-28
2022/06/01 06:39:55;;;;;;;22.77;17.80;;;;;;;;;;5062667;28;20048;-28
2022/06/01 06:42:22;;;;;;;24.00;17.00;;;;;;;;;;5053386;28;20052;-28
2022/06/01 06:44:48;;;;;;;25.00;19.48;;;;;;;;;;5059638;28;20048;-28
2022/06/01 06:47:14;;;;;;;17.10;14.68;;;;;;;;;;5073907;28;20052;-28
2022/06/01 06:49:40;;;;;;;23.77;17.08;;;;;;;;;;5073817;28;20052;-27
2022/06/01 06:52:06;;;;;;;19.85;15.70;;;;;;;;;;5073299;28;20053;-28
2022/06/01 06:54:34;;;;;;;17.48;14.30;;;;;;;;;;5072361;28;20045;-28
2022/06/01 06:57:00;;;;;;;12.57;11.35;;;;;;;;;;5073249;28;20045;-28
2022/06/01 06:59:26;;;;;;;11.50;7.72;;;;;;;;;;5073206;28;20072;-28
2022/06/01 07:01:52;;;;;;;7.13;6.43;;;;;;;;;;5073193;28;20048;-28
2022/06/01 07:04:19;;;;;;;4.40;4.00;;;;;;;;;;5072488;28;20127;-28
2022/06/01 07:06:45;;;;;;;4.95;3.67;;;;;;;;;;5072299;28;20071;-28
2022/06/01 07:09:11;;;;;;;5.45;3.63;;;;;;;;;;5073944;28;20177;-29
2022/06/01 07:11:38;;;;;;;4.38;3.97;;;;;;;;;;5075440;28;20053;-29
2022/06/01 07:14:04;;;;;;;3.13;2.83;;;;;;;;;;5077447;28;20101;-28
2022/06/01 07:16:32;;;;;;;3.03;2.80;;;;;;;;;;5075820;28;20486;-29
2022/06/01 07:18:59;;;;;;;2.75;2.00;;;;;;;;;;5076759;28;20048;-28
2022/06/01 07:21:25;;;;;;;4.00;2.40;;;;;;;;;;5071648;28;20056;-28
2022/06/01 07:23:51;;;;;;;3.00;2.70;;;;;;;;;;5076664;28;20052;-29
2022/06/01 07:26:22;;;;;;;8.13;5.82;;;;;;;;;;5076326;28;20492;-29
2022/06/01 07:28:48;;;;;;;3.63;3.28;;;;;;;;;;5076596;28;20052;-29
2022/06/01 07:31:15;;;;;;;2.75;1.90;;;;;;;;;;5074096;28;20053;-29
2022/06/01 07:33:41;;;;;;;3.00;2.42;;;;;;;;;;5065105;28;20056;-28
2022/06/01 07:36:08;;;;;;;1.83;1.63;;;;;;;;;;5076478;28;20045;-28
2022/06/01 07:44:07;;;;;;;2.42;1.20;;;;;;;;;;5071689;28;20048;-28
2022/06/01 07:46:34;;;;;;;2.22;1.38;;;;;;;;;;5065304;28;20052;-28
2022/06/01 07:49:00;;;;;;;1.80;1.20;;;;;;;;;;5074973;28;20090;-28
2022/06/01 07:51:26;;;;;;;1.50;1.40;;;;;;;;;;5072961;28;20060;-28
2022/06/01 07:53:52;;;;;;;1.33;1.23;;;;;;;;;;5076998;28;20128;-28
2022/06/01 07:56:19;;;;;;;1.27;1.10;;;;;;;;;;5067263;28;20046;-28
2022/06/01 07:58:45;;;;;;;3.35;1.08;;;;;;;;;;5056639;28;20068;-27
2022/06/01 08:01:11;;;;;;;1.40;1.20;;;;;;;;;;5059827;28;20048;-28
2022/06/01 08:03:37;;;;;;;1.77;1.40;;;;;;;;;;5074518;28;20045;-28
2022/06/01 08:06:04;;;;;;;1.30;1.20;;;;;;;;;;5076213;28;20040;-28
2022/06/01 08:08:30;;;;;;;1.48;1.33;;;;;;;;;;5076774;28;20094;-28
2022/06/01 08:10:59;;;;;;;1.33;1.15;;;;;;;;;;5075621;28;20053;-28
2022/06/01 08:13:25;;;;;;;2.85;1.30;;;;;;;;;;5064648;28;20044;-27
2022/06/01 08:15:54;;;;;;;1.23;1.00;;;;;;;;;;5067226;28;20132;-28
2022/06/01 08:18:22;;;;;;;1.33;1.20;;;;;;;;;;5056243;28;20052;-28
2022/06/01 08:20:48;;;;;;;1.90;1.10;;;;;;;;;;5054030;28;20521;-28
2022/06/01 08:23:14;;;;;;;1.40;1.10;;;;;;;;;;5056484;28;20045;-27
2022/06/01 08:25:41;;;;;;;1.25;1.15;;;;;;;;;;5054413;28;20110;-27
2022/06/01 08:28:07;;;;;;;1.60;1.50;;;;;;;;;;5055561;28;20049;-27
2022/06/01 08:30:34;;;;;;;2.63;1.40;;;;;;;;;;5055423;28;20043;-27
2022/06/01 08:33:01;;;;;;;2.90;2.38;;;;;;;;;;5055694;28;20048;-27
2022/06/01 08:35:32;;;;;;;2.40;2.13;;;;;;;;;;5068530;28;20056;-27
2022/06/01 08:37:59;;;;;;;3.10;2.25;;;;;;;;;;5075262;28;20049;-27
2022/06/01 08:40:27;;;;;;;2.60;2.40;;;;;;;;;;5076098;28;20041;-26
2022/06/01 08:42:55;;;;;;;4.05;2.83;;;;;;;;;;5073989;28;20132;-27
2022/06/01 08:45:22;;;;;;;3.88;3.35;;;;;;;;;;5056669;28;20068;-27
2022/06/01 08:47:49;;;;;;;4.30;3.90;;;;;;;;;;5054424;28;20049;-27
2022/06/01 08:50:27;;;;;;;4.10;3.70;;;;;;;;;;5037487;28;20041;-26
2022/06/01 08:52:55;;;;;;;4.45;3.58;;;;;;;;;;5055269;28;20122;-26
2022/06/01 08:55:21;;;;;;;5.03;3.70;;;;;;;;;;5061514;28;20071;-26
2022/06/01 08:57:54;;;;;;;3.50;3.20;;;;;;;;;;5074920;28;20040;-26
2022/06/01 09:00:21;;;;;;;2.90;2.60;;;;;;;;;;5074226;28;20048;-26
2022/06/01 09:02:50;;;;;;;3.78;2.80;;;;;;;;;;5073848;28;20092;-27
2022/06/01 09:05:19;;;;;;;2.00;1.90;;;;;;;;;;5072421;28;20067;-26
2022/06/01 09:07:52;;;;;;;2.67;1.80;;;;;;;;;;5056001;28;20059;-27
2022/06/01 09:10:18;;;;;;;;;;;;;;;;;;5056177;28;20114;-26
2022/06/01 09:12:45;;;;;;;2.10;1.52;;;;;;;;;;5057136;28;19920;-26
2022/06/01 09:15:28;;;;;;;2.28;1.42;;;;;;;;;;5058906;28;20052;-26
2022/06/01 09:17:55;;;;;;;1.70;1.60;;;;;;;;;;5062885;28;20457;-27
2022/06/01 09:23:11;;;;;;;1.60;0.98;;;;;;;;;;5073696;28;20052;-26
2022/06/01 09:25:38;;;;;;;1.15;0.90;;;;;;;;;;5071036;28;20486;-27
2022/06/01 09:28:18;;;;;;;0.95;0.57;;;;;;;;;;5054545;28;20407;-26
2022/06/01 09:30:46;;;;;;;0.93;0.60;;;;;;;;;;5054312;28;20045;-26
2022/06/01 09:33:21;;;;;;;0.68;0.30;;;;;;;;;;5070538;28;20048;-26
2022/06/01 09:36:05;;;;;;;0.40;0.40;;;;;;;;;;5066342;28;20040;-27
2022/06/01 09:38:37;;;;;;;1.10;0.80;;;;;;;;;;5073176;28;20498;-26
2022/06/01 09:41:05;;;;;;;1.33;0.70;;;;;;;;;;5074102;28;20056;-26
2022/06/01 09:43:31;;;;;;;0.98;0.88;;;;;;;;;;5071372;28;20051;-26
2022/06/01 09:45:57;;;;;;;1.30;0.70;;;;;;;;;;5053304;28;20099;-26
2022/06/01 09:48:27;;;;;;;1.58;0.70;;;;;;;;;;5066510;28;20044;-26
2022/06/01 09:51:08;;;;;;;1.40;0.73;;;;;;;;;;5060725;28;20040;-26
2022/06/01 09:53:43;;;;;;;1.90;0.85;;;;;;;;;;5070763;28;20049;-26
2022/06/01 09:56:09;;;;;;;0.98;0.88;;;;;;;;;;5073898;28;20041;-26
2022/06/01 10:06:58;;;;;;;1.58;1.17;;;;;;;;;;5053678;28;20095;-26
2022/06/01 10:09:26;;;;;;;2.63;1.17;;;;;;;;;;5053652;28;20047;-26
2022/06/01 10:11:54;;;;;;;1.30;1.20;;;;;;;;;;5053827;28;20143;-26
2022/06/01 10:14:22;;;;;;;1.30;0.90;;;;;;;;;;5064415;28;20056;-26
2022/06/01 10:16:51;;;;;;;1.08;0.90;;;;;;;;;;5073726;28;20048;-26
2022/06/01 10:19:19;;;;;;;1.50;0.90;;;;;;;;;;5073607;28;20090;-26
2022/06/01 10:21:57;;;;;;;0.50;0.43;;;;;;;;;;5074440;28;20045;-26
2022/06/01 10:24:27;;;;;;;2.40;1.00;;;;;;;;;;5047886;28;20045;-26
2022/06/01 10:26:59;;;;;;;1.77;0.90;;;;;;;;;;5067502;28;20045;-26
2022/06/01 10:29:37;;;;;;;1.17;0.80;;;;;;;;;;5074892;28;20044;-25
2022/06/01 10:32:09;;;;;;;1.70;1.60;;;;;;;;;;5073568;28;20055;-26
2022/06/01 10:34:51;;;;;;;1.40;1.30;;;;;;;;;;5074056;28;20049;-25
2022/06/01 10:37:17;;;;;;;2.35;1.73;;;;;;;;;;5073491;28;20279;-25
2022/06/01 10:39:49;;;;;;;3.47;1.70;;;;;;;;;;5066341;28;20063;-25
2022/06/01 10:43:16;;;;;;;1.67;1.38;;;;;;;;;;5071422;28;20048;-26
2022/06/01 10:45:14;;;;;;;1.67;1.58;;;;;;;;;;5064773;28;20044;-26
2022/06/01 10:47:59;;;;;;;2.05;1.52;;;;;;;;;;5061811;28;20055;-25
2022/06/01 10:50:32;;;;;;;4.03;2.00;;;;;;;;;;5078287;28;20094;-26
2022/06/01 10:53:03;;;;;;;3.05;2.10;;;;;;;;;;5077192;28;20468;-26
2022/06/01 10:55:39;;;;;;;3.53;1.75;;;;;;;;;;5077276;28;20044;-26
2022/06/01 10:58:06;;;;;;;3.75;2.70;;;;;;;;;;5077824;28;20048;-26
2022/06/01 11:00:40;;;;;;;4.22;2.00;;;;;;;;;;5062235;28;20080;-27
2022/06/01 11:03:27;;;;;;;2.40;1.80;;;;;;;;;;5057359;28;20052;-26
2022/06/01 11:06:11;;;;;;;2.05;1.70;;;;;;;;;;5057974;28;20127;-26
2022/06/01 11:08:37;;;;;;;0.80;0.80;;;;;;;;;;5056962;28;20056;-26
2022/06/01 11:11:36;;;;;;;3.05;0.43;;;;;;;;;;5061680;28;20055;-26
2022/06/01 11:14:18;;;;;;;1.20;0.77;;;;;;;;;;5064865;28;20057;-26
2022/06/01 11:16:53;;;;;;;0.65;0.43;;;;;;;;;;5076861;28;20502;-26
2022/06/01 11:19:28;;;;;;;0.70;0.30;;;;;;;;;;5076845;28;20490;-27
2022/06/01 11:21:59;;;;;;;0.30;0.20;;;;;;;;;;5059371;28;20093;-26
2022/06/01 11:24:45;;;;;;;0.50;0.40;;;;;;;;;;5057055;28;20051;-26
2022/06/01 11:27:20;;;;;;;1.85;0.25;;;;;;;;;;5056653;28;20513;-27
2022/06/01 11:30:02;;;;;;;0.17;0.17;;;;;;;;;;5056551;28;20478;-26
2022/06/01 11:32:34;;;;;;;0.68;0.30;;;;;;;;;;5056170;28;20059;-26
2022/06/01 11:35:00;;;;;;;0.20;0.20;;;;;;;;;;5067100;28;20193;-26
2022/06/01 11:37:31;;;;;;;0.40;0.10;;;;;;;;;;5058320;28;20049;-26
2022/06/01 11:40:00;;;;;;;0.13;0.10;;;;;;;;;;5061211;28;20040;-29
2022/06/01 11:42:31;;;;;;;2.03;0.60;;;;;;;;;;5056910;28;20041;-26
2022/06/01 11:44:59;;;;;;;1.50;1.02;;;;;;;;;;5056636;28;20048;-26
2022/06/01 11:47:26;;;;;;;0.90;0.80;;;;;;;;;;5056553;28;20110;-26
2022/06/01 11:50:12;;;;;;;2.13;1.05;;;;;;;;;;5055651;28;20136;-26
2022/06/01 11:52:45;;;;;;;2.63;1.63;;;;;;;;;;5058800;28;20557;-26
2022/06/01 11:55:23;;;;;;;1.30;1.20;;;;;;;;;;5055149;28;20048;-26
2022/06/01 11:58:04;;;;;;;1.35;1.00;;;;;;;;;;5056106;28;20491;-26
2022/06/01 12:00:34;;;;;;;1.77;1.40;;;;;;;;;;5056158;28;20052;-26
2022/06/01 12:03:02;;;;;;;1.05;0.70;;;;;;;;;;5055007;28;20056;-26
2022/06/01 12:05:28;;;;;;;0.85;0.70;;;;;;;;;;5055962;28;20056;-26
2022/06/01 12:07:57;;;;;;;1.13;0.82;;;;;;;;;;5055930;28;20049;-26
2022/06/01 12:10:28;;;;;;;0.90;0.77;;;;;;;;;;5056399;28;20124;-26
2022/06/01 12:13:01;;;;;;;2.08;0.90;;;;;;;;;;5053122;28;20045;-26
2022/06/01 12:15:39;;;;;;;1.67;1.17;;;;;;;;;;5056372;28;20048;-26
2022/06/01 12:18:14;;;;;;;1.60;1.05;;;;;;;;;;5056572;28;20378;-26
2022/06/01 12:20:40;;;;;;;3.10;1.52;;;;;;;;;;5056655;28;20045;-26
2022/06/01 12:28:49;;;;;;;4.55;2.08;;;;;;;;;;5056225;28;20049;-26
2022/06/01 12:31:25;;;;;;;2.50;1.77;;;;;;;;;;5054654;28;20496;-26
2022/06/01 12:34:09;;;;;;;2.22;1.63;;;;;;;;;;5069354;28;20067;-26
2022/06/01 12:36:38;;;;;;;1.60;1.30;;;;;;;;;;5075408;28;20371;-26
2022/06/01 12:39:08;;;;;;;3.63;1.70;;;;;;;;;;5071859;28;20501;-27
2022/06/01 12:41:36;;;;;;;1.95;1.50;;;;;;;;;;5037425;28;20510;-26
2022/06/01 12:44:07;;;;;;;1.63;1.25;;;;;;;;;;5066246;28;20135;-25
2022/06/01 12:46:40;;;;;;;1.90;1.70;;;;;;;;;;5074052;28;20048;-26
2022/06/01 12:49:06;;;;;;;;;;;;;;;;;;5074568;28;20087;-26
2022/06/01 12:51:32;;;;;;;1.75;1.45;;;;;;;;;;5063615;28;19972;-25
2022/06/01 12:53:58;;;;;;;1.85;1.35;;;;;;;;;;5057790;28;20048;-24
2022/06/01 12:56:27;;;;;;;1.60;1.30;;;;;;;;;;5058895;28;20044;-24
2022/06/01 12:58:54;;;;;;;2.53;0.90;;;;;;;;;;5064534;28;20041;-24
2022/06/01 13:01:21;;;;;;;1.50;1.20;;;;;;;;;;5060902;28;20383;-25
2022/06/01 13:03:51;;;;;;;3.72;1.20;;;;;;;;;;5064630;28;20048;-24
2022/06/01 13:06:20;;;;;;;3.97;1.35;;;;;;;;;;5057476;28;20048;-24
2022/06/01 13:08:55;;;;;;;1.30;1.15;;;;;;;;;;5054639;28;20049;-24
2022/06/01 13:11:23;;;;;;;2.30;1.27;;;;;;;;;;5054610;28;20053;-25
2022/06/01 13:13:51;;;;;;;1.73;1.30;;;;;;;;;;5064007;28;20090;-25
2022/06/01 13:16:19;;;;;;;2.72;1.05;;;;;;;;;;5061249;28;20076;-25
2022/06/01 13:18:45;;;;;;;1.17;0.85;;;;;;;;;;5054411;28;20156;-25
2022/06/01 13:21:32;;;;;;;1.40;1.20;;;;;;;;;;5053800;28;20073;-26
2022/06/01 13:24:00;;;;;;;1.63;1.23;;;;;;;;;;5054512;28;20047;-25
2022/06/01 13:26:38;;;;;;;1.95;1.08;;;;;;;;;;5053320;28;20079;-25
2022/06/01 13:29:24;;;;;;;1.67;1.20;;;;;;;;;;5061889;28;20040;-25
2022/06/01 13:31:52;;;;;;;1.92;1.20;;;;;;;;;;5055284;28;20053;-25
2022/06/01 13:34:20;;;;;;;1.48;1.38;;;;;;;;;;5056433;28;20048;-26
2022/06/01 13:36:47;;;;;;;3.75;1.75;;;;;;;;;;5068021;28;20560;-26
2022/06/01 13:39:13;;;;;;;1.85;1.75;;;;;;;;;;5070453;28;20475;-26
2022/06/01 13:41:43;;;;;;;2.40;1.80;;;;;;;;;;5053545;28;20487;-26
2022/06/01 13:44:09;;;;;;;1.75;1.60;;;;;;;;;;5052947;28;20045;-26
2022/06/01 13:46:45;;;;;;;5.28;2.53;;;;;;;;;;5056686;28;20045;-26
2022/06/01 13:49:14;;;;;;;2.15;1.90;;;;;;;;;;5060931;28;20041;-27
2022/06/01 13:51:47;;;;;;;2.92;1.92;;;;;;;;;;5061408;28;20533;-26
2022/06/01 13:54:30;;;;;;;2.05;1.75;;;;;;;;;;5055292;28;20044;-26
2022/06/01 13:57:26;;;;;;;2.47;1.52;;;;;;;;;;5051669;28;20503;-26
2022/06/01 13:59:54;;;;;;;2.95;1.50;;;;;;;;;;5070769;28;20068;-26
2022/06/01 14:02:29;;;;;;;3.53;1.50;;;;;;;;;;5069542;28;20472;-26
2022/06/01 14:05:05;;;;;;;2.05;1.52;;;;;;;;;;5064981;28;20036;-26
2022/06/01 14:07:42;;;;;;;2.65;2.08;;;;;;;;;;5062884;28;20088;-27
2022/06/01 14:10:08;;;;;;;2.33;1.98;;;;;;;;;;5074001;28;20040;-27
2022/06/01 14:12:36;;;;;;;3.33;1.90;;;;;;;;;;5072325;28;20132;-26
2022/06/01 14:15:03;;;;;;;2.05;1.40;;;;;;;;;;5073705;28;20056;-26
2022/06/01 14:17:30;;;;;;;1.92;1.20;;;;;;;;;;5057450;28;20135;-26
2022/06/01 14:19:56;;;;;;;1.98;1.02;;;;;;;;;;5067824;28;20066;-26
2022/06/01 14:22:22;;;;;;;0.90;0.60;;;;;;;;;;5073611;28;20063;-26
2022/06/01 14:30:18;;;;;;;2.28;1.13;;;;;;;;;;5065664;28;20076;-26
2022/06/01 14:32:44;;;;;;;3.38;1.50;;;;;;;;;;5073519;28;20080;-26
2022/06/01 14:35:15;;;;;;;2.67;1.10;;;;;;;;;;5074039;28;20466;-25
2022/06/01 14:37:42;;;;;;;3.90;1.73;;;;;;;;;;5065643;28;20045;-26
2022/06/01 14:40:09;;;;;;;2.50;2.30;;;;;;;;;;5060036;28;20095;-26
2022/06/01 14:42:35;;;;;;;2.38;1.30;;;;;;;;;;5057767;28;20052;-26
2022/06/01 14:45:01;;;;;;;3.33;2.08;;;;;;;;;;5065042;28;20048;-26
2022/06/01 14:47:27;;;;;;;5.47;1.85;;;;;;;;;;5051733;28;20067;-26
2022/06/01 14:49:53;;;;;;;2.55;1.88;;;;;;;;;;5067596;28;20449;-25
2022/06/01 14:52:19;;;;;;;3.45;2.28;;;;;;;;;;5067462;28;20376;-25
2022/06/01 14:54:45;;;;;;;2.70;1.83;;;;;;;;;;5062762;28;20413;-26
2022/06/01 14:57:12;;;;;;;2.05;1.83;;;;;;;;;;5072958;28;20048;-25
2022/06/01 14:59:39;;;;;;;3.50;3.20;;;;;;;;;;5070081;28;20044;-26
2022/06/01 15:02:05;;;;;;;4.05;3.53;;;;;;;;;;5062479;28;20413;-25
2022/06/01 15:04:37;;;;;;;3.83;3.35;;;;;;;;;;5053865;28;20060;-26
2022/06/01 15:07:03;;;;;;;5.18;3.83;;;;;;;;;;5060628;28;20048;-26
2022/06/01 15:09:31;;;;;;;6.25;3.67;;;;;;;;;;5073349;28;20044;-26
2022/06/01 15:11:58;;;;;;;3.97;3.58;;;;;;;;;;5071154;28;20060;-25
2022/06/01 15:14:24;;;;;;;5.68;4.57;;;;;;;;;;5073939;28;20127;-25
2022/06/01 15:16:53;;;;;;;4.57;3.45;;;;;;;;;;5073031;28;20048;-25
2022/06/01 15:19:20;;;;;;;4.68;3.08;;;;;;;;;;5073846;28;20045;-25